createdAt,value
2023-05-08T00:00:17.087Z,95343.80
2023-05-08T00:01:43.169Z,95338.80
2023-05-08T00:02:49.463Z,95338.58
2023-05-08T00:03:55.898Z,95339.90
2023-05-08T00:05:02.013Z,95338.88
2023-05-08T00:06:09.025Z,95340.61
2023-05-08T00:07:15.277Z,95335.37
2023-05-08T00:08:21.544Z,95341.58
2023-05-08T00:09:27.629Z,95338.02
2023-05-08T00:10:33.608Z,95338.86
2023-05-08T00:11:39.436Z,95338.73
2023-05-08T00:12:45.759Z,95336.91
2023-05-08T00:13:51.755Z,95339.67
2023-05-08T00:14:58.094Z,95338.77
2023-05-08T00:16:04.182Z,95341.16
2023-05-08T00:17:10.443Z,95337.96
2023-05-08T00:18:16.673Z,95341.44
2023-05-08T00:19:22.509Z,95342.52
2023-05-08T00:20:29.062Z,95339.09
2023-05-08T00:21:35.250Z,95339.66
2023-05-08T00:22:40.963Z,95342.85
2023-05-08T00:23:46.796Z,95343.21
2023-05-08T00:24:53.100Z,95339.20
2023-05-08T00:25:59.447Z,95339.38
2023-05-08T00:27:05.982Z,95340.25
2023-05-08T00:28:12.260Z,95336.21
2023-05-08T00:29:18.168Z,95339.50
2023-05-08T00:30:24.745Z,95338.02
2023-05-08T00:31:30.578Z,95335.91
2023-05-08T00:32:37.056Z,95336.20
2023-05-08T00:33:43.209Z,95333.27
2023-05-08T00:34:49.255Z,95336.45
2023-05-08T00:36:00.885Z,95332.98
2023-05-08T00:37:06.669Z,95329.25
2023-05-08T00:38:12.733Z,95328.20
2023-05-08T00:39:18.458Z,95332.04
2023-05-08T00:40:25.455Z,95331.33
2023-05-08T00:41:31.412Z,95328.96
2023-05-08T00:42:37.842Z,95327.40
2023-05-08T00:43:44.108Z,95329.97
2023-05-08T00:44:51.191Z,95330.36
2023-05-08T00:45:59.333Z,95331.38
2023-05-08T00:47:06.353Z,95332.23
2023-05-08T00:48:12.709Z,95328.48
2023-05-08T00:49:18.935Z,95330.66
2023-05-08T00:50:25.672Z,95329.02
2023-05-08T00:51:32.185Z,95326.88
2023-05-08T00:52:39.849Z,95329.65
2023-05-08T00:53:46.848Z,95327.17
2023-05-08T00:54:53.912Z,95323.58
2023-05-08T00:56:00.341Z,95321.17
2023-05-08T00:57:08.994Z,95319.16
2023-05-08T00:58:15.664Z,95321.48
2023-05-08T00:59:24.236Z,95323.27
2023-05-08T01:00:31.654Z,95322.12
2023-05-08T01:01:38.699Z,95320.24
2023-05-08T01:02:45.743Z,95320.28
2023-05-08T01:03:52.304Z,95317.34
2023-05-08T01:04:58.913Z,95320.39
2023-05-08T01:06:06.882Z,95318.98
2023-05-08T01:07:13.478Z,95317.92
2023-05-08T01:08:19.293Z,95313.80
2023-05-08T01:09:25.139Z,95318.49
2023-05-08T01:10:38.867Z,95315.90
2023-05-08T01:11:48.828Z,95315.64
2023-05-08T01:13:06.516Z,95318.61
2023-05-08T01:14:17.500Z,95317.60
2023-05-08T01:15:30.012Z,95321.16
2023-05-08T01:16:44.306Z,95318.55
2023-05-08T01:18:03.659Z,95316.74
2023-05-08T01:19:33.808Z,95317.67
2023-05-08T01:20:53.776Z,95319.85
2023-05-08T01:22:08.760Z,95321.74
2023-05-08T01:23:30.709Z,95318.98
2023-05-08T01:25:02.791Z,95321.95
2023-05-08T01:26:36.420Z,95316.58
2023-05-08T01:28:18.966Z,95320.13
2023-05-08T01:29:59.966Z,95323.61
2023-05-08T01:31:15.538Z,95326.84
2023-05-08T01:32:25.087Z,95321.84
2023-05-08T01:33:36.896Z,95323.69
2023-05-08T01:34:53.102Z,95319.83
2023-05-08T01:36:10.443Z,95320.83
2023-05-08T01:37:22.409Z,95321.69
2023-05-08T01:38:39.415Z,95326.29
2023-05-08T01:39:51.463Z,95326.35
2023-05-08T01:41:10.321Z,95324.94
2023-05-08T01:42:37.115Z,95325.11
2023-05-08T01:43:53.609Z,95327.06
2023-05-08T01:45:05.292Z,95326.20
2023-05-08T01:46:18.869Z,95324.52
2023-05-08T01:47:30.506Z,95323.31
2023-05-08T01:48:44.831Z,95323.02
2023-05-08T01:49:58.960Z,95326.25
2023-05-08T01:51:09.108Z,95326.44
2023-05-08T01:52:32.354Z,95326.04
2023-05-08T01:53:42.901Z,95325.22
2023-05-08T01:54:56.590Z,95322.71
2023-05-08T01:56:15.933Z,95324.59
2023-05-08T01:57:24.650Z,95325.27
2023-05-08T01:58:34.294Z,95325.72
2023-05-08T01:59:41.951Z,95328.43
2023-05-08T02:00:51.008Z,95329.19
2023-05-08T02:01:58.862Z,95329.38
2023-05-08T02:03:12.104Z,95327.09
2023-05-08T02:04:22.227Z,95325.55
2023-05-08T02:05:30.113Z,95325.27
2023-05-08T02:06:37.600Z,95327.50
2023-05-08T02:07:47.293Z,95325.59
2023-05-08T02:08:54.913Z,95325.05
2023-05-08T02:10:03.870Z,95321.88
2023-05-08T02:11:12.745Z,95323.63
2023-05-08T02:12:22.303Z,95324.90
2023-05-08T02:13:30.914Z,95328.26
2023-05-08T02:14:38.895Z,95328.76
2023-05-08T02:15:46.024Z,95329.48
2023-05-08T02:16:54.952Z,95333.05
2023-05-08T02:18:00.103Z,95333.30
2023-05-08T02:19:07.494Z,95332.77
2023-05-08T02:20:15.938Z,95334.36
2023-05-08T02:21:23.714Z,95336.39
2023-05-08T02:22:32.623Z,95331.73
2023-05-08T02:23:39.819Z,95329.94
2023-05-08T02:24:47.203Z,95331.10
2023-05-08T02:25:55.632Z,95330.64
2023-05-08T02:27:02.965Z,95334.36
2023-05-08T02:28:10.027Z,95328.61
2023-05-08T02:29:17.306Z,95332.09
2023-05-08T02:30:25.866Z,95331.70
2023-05-08T02:31:33.573Z,95333.79
2023-05-08T02:32:41.867Z,95333.34
2023-05-08T02:33:49.796Z,95329.02
2023-05-08T02:35:03.093Z,95332.60
2023-05-08T02:36:11.566Z,95330.70
2023-05-08T02:37:20.566Z,95335.14
2023-05-08T02:38:26.396Z,95335.48
2023-05-08T02:39:35.437Z,95338.30
2023-05-08T02:40:46.774Z,95336.78
2023-05-08T02:41:53.064Z,95340.70
2023-05-08T02:42:59.420Z,95341.46
2023-05-08T02:44:06.594Z,95337.32
2023-05-08T02:45:14.159Z,95334.91
2023-05-08T02:46:26.498Z,95333.11
2023-05-08T02:47:40.129Z,95336.06
2023-05-08T02:48:57.306Z,95332.75
2023-05-08T02:50:09.911Z,95330.36
2023-05-08T02:51:22.362Z,95332.80
2023-05-08T02:52:32.282Z,95330.33
2023-05-08T02:53:46.597Z,95332.77
2023-05-08T02:54:59.783Z,95334.08
2023-05-08T02:56:11.288Z,95334.30
2023-05-08T02:57:28.916Z,95334.85
2023-05-08T02:58:42.840Z,95336.80
2023-05-08T02:59:58.640Z,95337.25
2023-05-08T03:01:08.756Z,95333.45
2023-05-08T03:02:22.760Z,95334.17
2023-05-08T03:03:36.858Z,95333.86
2023-05-08T03:04:49.903Z,95335.73
2023-05-08T03:05:58.070Z,95332.51
2023-05-08T03:07:06.958Z,95333.38
2023-05-08T03:08:27.087Z,95330.13
2023-05-08T03:09:43.224Z,95330.99
2023-05-08T03:10:52.622Z,95329.93
2023-05-08T03:12:05.038Z,95330.61
2023-05-08T03:13:13.973Z,95330.09
2023-05-08T03:14:24.549Z,95328.33
2023-05-08T03:15:36.562Z,95333.13
2023-05-08T03:16:45.976Z,95330.48
2023-05-08T03:17:56.311Z,95337.09
2023-05-08T03:19:07.805Z,95338.67
2023-05-08T03:20:17.573Z,95339.52
2023-05-08T03:21:28.230Z,95338.86
2023-05-08T03:22:37.576Z,95340.63
2023-05-08T03:23:44.818Z,95337.45
2023-05-08T03:24:53.671Z,95333.30
2023-05-08T03:26:01.267Z,95333.84
2023-05-08T03:27:08.622Z,95335.98
2023-05-08T03:28:15.265Z,95332.92
2023-05-08T03:29:24.197Z,95335.69
2023-05-08T03:30:31.449Z,95336.27
2023-05-08T03:31:38.395Z,95339.55
2023-05-08T03:32:47.806Z,95341.54
2023-05-08T03:33:55.575Z,95341.02
2023-05-08T03:35:03.861Z,95344.80
2023-05-08T03:36:11.397Z,95343.29
2023-05-08T03:37:17.338Z,95343.73
2023-05-08T03:38:23.666Z,95344.68
2023-05-08T03:39:29.927Z,95345.92
2023-05-08T03:40:38.693Z,95347.08
2023-05-08T03:41:52.594Z,95346.98
2023-05-08T03:43:00.821Z,95348.67
2023-05-08T03:44:07.892Z,95350.74
2023-05-08T03:45:16.212Z,95353.25
2023-05-08T03:46:23.342Z,95356.05
2023-05-08T03:47:29.725Z,95356.50
2023-05-08T03:48:36.058Z,95357.78
2023-05-08T03:49:43.144Z,95351.08
2023-05-08T03:50:50.533Z,95349.58
2023-05-08T03:51:57.257Z,95350.80
2023-05-08T03:53:03.578Z,95350.00
2023-05-08T03:54:09.797Z,95351.13
2023-05-08T03:55:15.848Z,95352.26
2023-05-08T03:56:23.081Z,95357.37
2023-05-08T03:57:37.843Z,95359.06
2023-05-08T03:58:54.907Z,95357.98
2023-05-08T04:00:12.388Z,95358.32
2023-05-08T04:01:28.672Z,95360.89
2023-05-08T04:02:50.461Z,95361.00
2023-05-08T04:04:08.120Z,95357.23
2023-05-08T04:05:20.990Z,95358.65
2023-05-08T04:06:48.549Z,95357.88
2023-05-08T04:08:03.347Z,95360.48
2023-05-08T04:09:20.451Z,95362.34
2023-05-08T04:10:32.565Z,95361.48
2023-05-08T04:11:48.662Z,95364.80
2023-05-08T04:13:04.697Z,95365.54
2023-05-08T04:14:15.700Z,95365.82
2023-05-08T04:15:26.922Z,95369.55
2023-05-08T04:16:38.418Z,95372.63
2023-05-08T04:17:48.374Z,95372.15
2023-05-08T04:19:01.513Z,95373.27
2023-05-08T04:20:14.035Z,95374.48
2023-05-08T04:21:24.073Z,95372.83
2023-05-08T04:22:33.203Z,95367.31
2023-05-08T04:23:42.404Z,95363.02
2023-05-08T04:24:51.928Z,95363.23
2023-05-08T04:26:00.603Z,95362.34
2023-05-08T04:27:07.494Z,95355.41
2023-05-08T04:28:13.531Z,95355.14
2023-05-08T04:29:20.566Z,95358.90
2023-05-08T04:30:27.850Z,95353.51
2023-05-08T04:31:34.819Z,95354.12
2023-05-08T04:32:44.146Z,95353.45
2023-05-08T04:33:52.004Z,95355.77
2023-05-08T04:34:59.082Z,95354.39
2023-05-08T04:36:06.433Z,95356.58
2023-05-08T04:37:29.573Z,95358.10
2023-05-08T04:38:38.091Z,95356.90
2023-05-08T04:39:44.115Z,95355.72
2023-05-08T04:40:50.165Z,95356.20
2023-05-08T04:42:03.501Z,95355.97
2023-05-08T04:43:10.474Z,95358.08
2023-05-08T04:44:17.649Z,95356.65
2023-05-08T04:45:25.436Z,95355.36
2023-05-08T04:46:31.564Z,95352.30
2023-05-08T04:47:38.251Z,95347.08
2023-05-08T04:48:45.022Z,95349.45
2023-05-08T04:49:51.400Z,95352.50
2023-05-08T04:50:58.195Z,95356.26
2023-05-08T04:52:06.537Z,95358.16
2023-05-08T04:53:12.553Z,95356.73
2023-05-08T04:54:18.738Z,95359.51
2023-05-08T04:55:25.399Z,95357.09
2023-05-08T04:56:31.698Z,95354.98
2023-05-08T04:57:37.618Z,95353.60
2023-05-08T04:58:43.660Z,95354.90
2023-05-08T04:59:50.052Z,95356.51
2023-05-08T05:00:56.397Z,95357.27
2023-05-08T05:02:02.785Z,95353.08
2023-05-08T05:03:09.438Z,95356.48
2023-05-08T05:04:16.259Z,95353.15
2023-05-08T05:05:22.508Z,95354.23
2023-05-08T05:06:28.769Z,95357.23
2023-05-08T05:07:35.006Z,95356.81
2023-05-08T05:08:41.506Z,95359.16
2023-05-08T05:09:47.320Z,95362.20
2023-05-08T05:10:53.693Z,95361.27
2023-05-08T05:12:07.941Z,95362.68
2023-05-08T05:13:14.245Z,95364.08
2023-05-08T05:14:20.399Z,95364.33
2023-05-08T05:15:26.299Z,95366.25
2023-05-08T05:16:32.595Z,95364.02
2023-05-08T05:17:39.057Z,95365.63
2023-05-08T05:18:46.334Z,95366.75
2023-05-08T05:19:53.980Z,95369.90
2023-05-08T05:21:00.927Z,95366.43
2023-05-08T05:22:08.723Z,95364.63
2023-05-08T05:23:14.982Z,95363.32
2023-05-08T05:24:22.460Z,95362.75
2023-05-08T05:25:28.856Z,95360.36
2023-05-08T05:26:36.406Z,95365.79
2023-05-08T05:27:43.117Z,95363.88
2023-05-08T05:28:50.257Z,95367.31
2023-05-08T05:29:58.056Z,95367.50
2023-05-08T05:31:04.890Z,95368.04
2023-05-08T05:32:13.329Z,95368.87
2023-05-08T05:33:19.817Z,95366.43
2023-05-08T05:34:25.924Z,95370.50
2023-05-08T05:35:32.383Z,95365.17
2023-05-08T05:36:40.913Z,95367.02
2023-05-08T05:37:46.944Z,95365.73
2023-05-08T05:38:53.270Z,95361.33
2023-05-08T05:39:58.937Z,95363.66
2023-05-08T05:41:05.892Z,95362.59
2023-05-08T05:42:12.837Z,95361.57
2023-05-08T05:43:18.890Z,95359.39
2023-05-08T05:44:24.800Z,95358.34
2023-05-08T05:45:33.147Z,95361.48
2023-05-08T05:46:44.253Z,95361.14
2023-05-08T05:47:54.403Z,95360.23
2023-05-08T05:49:01.191Z,95359.34
2023-05-08T05:50:09.600Z,95363.91
2023-05-08T05:51:16.643Z,95362.86
2023-05-08T05:52:22.681Z,95359.15
2023-05-08T05:53:29.247Z,95362.05
2023-05-08T05:54:35.627Z,95361.38
2023-05-08T05:55:41.854Z,95363.13
2023-05-08T05:56:48.327Z,95363.89
2023-05-08T05:57:54.385Z,95361.30
2023-05-08T05:59:01.464Z,95363.69
2023-05-08T06:00:12.312Z,95361.46
2023-05-08T06:01:19.301Z,95358.09
2023-05-08T06:02:25.240Z,95360.13
2023-05-08T06:03:31.724Z,95357.67
2023-05-08T06:04:38.090Z,95358.37
2023-05-08T06:05:46.659Z,95357.50
2023-05-08T06:06:52.788Z,95358.48
2023-05-08T06:07:59.470Z,95356.60
2023-05-08T06:09:07.256Z,95355.31
2023-05-08T06:10:13.949Z,95359.70
2023-05-08T06:11:22.938Z,95362.86
2023-05-08T06:12:29.090Z,95361.59
2023-05-08T06:13:34.967Z,95360.71
2023-05-08T06:14:41.249Z,95358.90
2023-05-08T06:15:47.243Z,95353.14
2023-05-08T06:16:53.473Z,95357.12
2023-05-08T06:17:59.197Z,95354.96
2023-05-08T06:19:05.687Z,95354.19
2023-05-08T06:20:13.274Z,95357.79
2023-05-08T06:21:19.277Z,95358.52
2023-05-08T06:22:26.394Z,95362.02
2023-05-08T06:23:32.654Z,95362.20
2023-05-08T06:24:39.106Z,95360.75
2023-05-08T06:25:45.557Z,95360.86
2023-05-08T06:26:52.126Z,95363.91
2023-05-08T06:27:58.582Z,95361.56
2023-05-08T06:29:05.162Z,95362.71
2023-05-08T06:30:13.921Z,95366.34
2023-05-08T06:31:19.963Z,95365.41
2023-05-08T06:32:26.575Z,95366.08
2023-05-08T06:33:32.430Z,95368.73
2023-05-08T06:34:38.442Z,95367.73
2023-05-08T06:35:47.945Z,95366.80
2023-05-08T06:36:53.849Z,95363.27
2023-05-08T06:38:00.212Z,95365.32
2023-05-08T06:39:09.020Z,95366.84
2023-05-08T06:40:15.916Z,95367.65
2023-05-08T06:41:22.035Z,95368.59
2023-05-08T06:42:28.512Z,95367.19
2023-05-08T06:43:34.453Z,95368.02
2023-05-08T06:44:40.922Z,95371.11
2023-05-08T06:45:46.957Z,95369.09
2023-05-08T06:46:53.221Z,95372.98
2023-05-08T06:47:59.768Z,95373.34
2023-05-08T06:49:06.218Z,95372.27
2023-05-08T06:50:12.782Z,95371.84
2023-05-08T06:51:20.087Z,95374.29
2023-05-08T06:52:25.965Z,95374.89
2023-05-08T06:53:32.484Z,95376.11
2023-05-08T06:54:38.399Z,95375.68
2023-05-08T06:55:46.226Z,95376.32
2023-05-08T06:56:54.235Z,95375.86
2023-05-08T06:58:00.656Z,95375.25
2023-05-08T06:59:08.769Z,95373.73
2023-05-08T07:00:18.474Z,95376.40
2023-05-08T07:01:25.063Z,95376.66
2023-05-08T07:02:31.518Z,95375.42
2023-05-08T07:03:37.954Z,95380.34
2023-05-08T07:04:45.695Z,95382.27
2023-05-08T07:05:51.894Z,95384.74
2023-05-08T07:06:58.166Z,95384.75
2023-05-08T07:08:04.417Z,95388.48
2023-05-08T07:09:13.117Z,95390.27
2023-05-08T07:10:21.521Z,95389.02
2023-05-08T07:11:28.015Z,95387.64
2023-05-08T07:12:34.319Z,95384.46
2023-05-08T07:13:42.428Z,95387.13
2023-05-08T07:14:48.201Z,95385.99
2023-05-08T07:15:54.238Z,95388.14
2023-05-08T07:17:06.882Z,95387.30
2023-05-08T07:18:13.106Z,95390.52
2023-05-08T07:19:22.348Z,95393.02
2023-05-08T07:20:29.846Z,95394.16
2023-05-08T07:21:35.539Z,95391.65
2023-05-08T07:22:42.212Z,95393.23
2023-05-08T07:23:52.023Z,95395.58
2023-05-08T07:24:58.007Z,95393.15
2023-05-08T07:26:03.865Z,95393.67
2023-05-08T07:27:10.264Z,95393.34
2023-05-08T07:28:17.138Z,95392.52
2023-05-08T07:29:23.599Z,95394.53
2023-05-08T07:30:29.609Z,95393.73
2023-05-08T07:31:36.792Z,95393.25
2023-05-08T07:32:43.337Z,95395.16
2023-05-08T07:33:50.139Z,95399.35
2023-05-08T07:34:56.408Z,95401.30
2023-05-08T07:36:02.447Z,95404.48
2023-05-08T07:37:09.006Z,95402.48
2023-05-08T07:38:15.123Z,95406.24
2023-05-08T07:39:21.511Z,95405.63
2023-05-08T07:40:28.171Z,95406.83
2023-05-08T07:41:37.283Z,95405.09
2023-05-08T07:42:45.358Z,95410.48
2023-05-08T07:43:52.050Z,95413.97
2023-05-08T07:44:58.129Z,95415.24
2023-05-08T07:46:05.594Z,95413.45
2023-05-08T07:47:11.764Z,95411.64
2023-05-08T07:48:18.428Z,95415.64
2023-05-08T07:49:25.551Z,95411.13
2023-05-08T07:50:31.686Z,95411.19
2023-05-08T07:51:37.613Z,95407.47
2023-05-08T07:52:43.683Z,95408.84
2023-05-08T07:53:51.294Z,95408.87
2023-05-08T07:54:58.469Z,95410.53
2023-05-08T07:56:06.645Z,95415.65
2023-05-08T07:57:13.635Z,95421.56
2023-05-08T07:58:19.587Z,95418.20
2023-05-08T07:59:26.102Z,95419.08
2023-05-08T08:00:32.603Z,95418.48
2023-05-08T08:01:40.398Z,95421.63
2023-05-08T08:02:47.221Z,95419.84
2023-05-08T08:03:54.840Z,95422.34
2023-05-08T08:05:01.401Z,95416.65
2023-05-08T08:06:07.923Z,95421.73
2023-05-08T08:07:13.964Z,95415.16
2023-05-08T08:08:20.435Z,95414.79
2023-05-08T08:09:26.425Z,95416.79
2023-05-08T08:10:34.336Z,95416.51
2023-05-08T08:11:40.965Z,95418.26
2023-05-08T08:12:46.712Z,95414.55
2023-05-08T08:13:53.678Z,95415.05
2023-05-08T08:15:00.172Z,95413.27
2023-05-08T08:16:08.339Z,95416.45
2023-05-08T08:17:14.649Z,95417.95
2023-05-08T08:18:21.153Z,95418.81
2023-05-08T08:19:26.867Z,95419.52
2023-05-08T08:20:33.157Z,95422.73
2023-05-08T08:21:46.291Z,95426.86
2023-05-08T08:22:54.159Z,95428.49
2023-05-08T08:24:00.350Z,95430.20
2023-05-08T08:25:10.116Z,95430.04
2023-05-08T08:26:16.806Z,95431.54
2023-05-08T08:27:23.385Z,95433.79
2023-05-08T08:28:30.004Z,95434.15
2023-05-08T08:29:36.671Z,95432.70
2023-05-08T08:30:42.461Z,95428.71
2023-05-08T08:31:50.451Z,95429.04
2023-05-08T08:32:56.244Z,95428.14
2023-05-08T08:34:02.302Z,95428.81
2023-05-08T08:35:10.841Z,95427.14
2023-05-08T08:36:17.532Z,95426.59
2023-05-08T08:37:24.335Z,95422.61
2023-05-08T08:38:30.715Z,95423.48
2023-05-08T08:39:36.994Z,95420.02
2023-05-08T08:40:44.056Z,95415.69
2023-05-08T08:41:50.698Z,95416.10
2023-05-08T08:42:57.542Z,95412.83
2023-05-08T08:44:03.751Z,95415.07
2023-05-08T08:45:11.274Z,95414.91
2023-05-08T08:46:20.304Z,95413.63
2023-05-08T08:47:28.249Z,95416.05
2023-05-08T08:48:35.462Z,95415.17
2023-05-08T08:49:48.653Z,95419.80
2023-05-08T08:50:58.895Z,95423.17
2023-05-08T08:52:11.898Z,95425.48
2023-05-08T08:53:27.312Z,95428.02
2023-05-08T08:54:36.347Z,95427.63
2023-05-08T08:55:47.179Z,95430.02
2023-05-08T08:56:56.041Z,95427.38
2023-05-08T08:58:05.936Z,95429.95
2023-05-08T08:59:13.703Z,95423.75
2023-05-08T09:00:22.755Z,95426.36
2023-05-08T09:01:29.779Z,95427.83
2023-05-08T09:02:36.555Z,95426.84
2023-05-08T09:03:43.089Z,95425.73
2023-05-08T09:04:51.896Z,95424.60
2023-05-08T09:05:59.326Z,95425.99
2023-05-08T09:07:07.475Z,95422.38
2023-05-08T09:08:14.133Z,95422.40
2023-05-08T09:09:20.092Z,95426.23
2023-05-08T09:10:26.861Z,95424.36
2023-05-08T09:11:33.201Z,95424.20
2023-05-08T09:12:41.647Z,95424.89
2023-05-08T09:13:47.876Z,95428.25
2023-05-08T09:14:54.109Z,95429.42
2023-05-08T09:16:01.671Z,95423.66
2023-05-08T09:17:09.217Z,95427.52
2023-05-08T09:18:15.560Z,95430.76
2023-05-08T09:19:25.630Z,95428.48
2023-05-08T09:20:36.697Z,95427.23
2023-05-08T09:21:43.236Z,95424.76
2023-05-08T09:22:51.823Z,95424.35
2023-05-08T09:24:01.200Z,95421.98
2023-05-08T09:25:09.995Z,95424.83
2023-05-08T09:26:32.731Z,95428.02
2023-05-08T09:27:39.607Z,95428.08
2023-05-08T09:28:46.066Z,95426.98
2023-05-08T09:30:02.852Z,95426.01
2023-05-08T09:31:09.014Z,95424.99
2023-05-08T09:32:20.079Z,95423.39
2023-05-08T09:33:27.776Z,95420.98
2023-05-08T09:34:35.250Z,95416.40
2023-05-08T09:35:41.729Z,95413.91
2023-05-08T09:36:47.824Z,95411.45
2023-05-08T09:37:55.067Z,95411.23
2023-05-08T09:39:03.343Z,95415.50
2023-05-08T09:40:26.836Z,95413.02
2023-05-08T09:41:33.045Z,95417.51
2023-05-08T09:42:41.468Z,95413.84
2023-05-08T09:44:02.956Z,95418.05
2023-05-08T09:45:11.411Z,95417.28
2023-05-08T09:46:27.403Z,95418.71
2023-05-08T09:47:37.593Z,95417.56
2023-05-08T09:48:43.457Z,95418.44
2023-05-08T09:50:03.708Z,95417.84
2023-05-08T09:51:11.133Z,95419.39
2023-05-08T09:52:19.118Z,95415.56
2023-05-08T09:53:33.884Z,95421.13
2023-05-08T09:54:40.108Z,95419.37
2023-05-08T09:55:52.121Z,95429.55
2023-05-08T09:56:58.667Z,95427.19
2023-05-08T09:58:05.505Z,95432.34
2023-05-08T09:59:26.893Z,95431.77
2023-05-08T10:00:40.644Z,95433.90
2023-05-08T10:01:46.716Z,95429.02
2023-05-08T10:03:00.822Z,95433.81
2023-05-08T10:04:07.219Z,95435.06
2023-05-08T10:05:27.894Z,95428.70
2023-05-08T10:06:34.092Z,95436.95
2023-05-08T10:07:41.466Z,95433.59
2023-05-08T10:08:48.426Z,95430.95
2023-05-08T10:10:02.921Z,95432.80
2023-05-08T10:11:17.724Z,95429.84
2023-05-08T10:12:24.966Z,95437.38
2023-05-08T10:13:31.408Z,95437.26
2023-05-08T10:14:37.329Z,95437.20
2023-05-08T10:15:44.424Z,95435.54
2023-05-08T10:16:55.152Z,95436.44
2023-05-08T10:18:06.066Z,95441.20
2023-05-08T10:19:15.158Z,95445.73
2023-05-08T10:20:25.693Z,95447.15
2023-05-08T10:21:36.396Z,95448.80
2023-05-08T10:22:45.450Z,95453.21
2023-05-08T10:23:55.986Z,95452.21
2023-05-08T10:25:03.533Z,95449.10
2023-05-08T10:26:12.799Z,95450.40
2023-05-08T10:27:30.579Z,95453.08
2023-05-08T10:28:43.738Z,95452.36
2023-05-08T10:29:56.230Z,95453.80
2023-05-08T10:31:03.902Z,95450.65
2023-05-08T10:32:14.481Z,95450.14
2023-05-08T10:33:26.053Z,95449.14
2023-05-08T10:34:35.434Z,95444.86
2023-05-08T10:35:42.520Z,95446.88
2023-05-08T10:36:54.155Z,95444.91
2023-05-08T10:38:00.621Z,95445.12
2023-05-08T10:39:07.699Z,95448.77
2023-05-08T10:40:21.742Z,95451.66
2023-05-08T10:41:29.454Z,95456.02
2023-05-08T10:42:36.617Z,95455.70
2023-05-08T10:43:44.019Z,95461.27
2023-05-08T10:44:50.369Z,95461.11
2023-05-08T10:45:58.098Z,95460.61
2023-05-08T10:47:12.152Z,95458.81
2023-05-08T10:48:27.151Z,95461.35
2023-05-08T10:49:55.461Z,95463.45
2023-05-08T10:51:06.331Z,95469.67
2023-05-08T10:52:18.913Z,95465.83
2023-05-08T10:53:34.554Z,95469.17
2023-05-08T10:55:17.847Z,95471.71
2023-05-08T10:56:29.135Z,95472.88
2023-05-08T10:57:35.826Z,95474.29
2023-05-08T10:58:41.903Z,95475.13
2023-05-08T10:59:48.545Z,95478.27
2023-05-08T11:01:14.306Z,95479.94
2023-05-08T11:02:37.347Z,95477.09
2023-05-08T11:03:46.312Z,95482.63
2023-05-08T11:04:53.300Z,95487.09
2023-05-08T11:06:01.869Z,95486.10
2023-05-08T11:07:08.473Z,95490.02
2023-05-08T11:08:18.539Z,95496.00
2023-05-08T11:09:29.269Z,95500.44
2023-05-08T11:10:40.528Z,95501.92
2023-05-08T11:12:05.729Z,95496.50
2023-05-08T11:13:13.856Z,95490.59
2023-05-08T11:14:21.514Z,95488.35
2023-05-08T11:15:39.744Z,95487.21
2023-05-08T11:17:07.217Z,95485.97
2023-05-08T11:18:12.088Z,95490.61
2023-05-08T11:19:22.588Z,95492.43
2023-05-08T11:20:40.983Z,95500.75
2023-05-08T11:22:32.930Z,95504.34
2023-05-08T11:23:39.218Z,95507.63
2023-05-08T11:24:53.345Z,95514.93
2023-05-08T11:26:04.289Z,95513.34
2023-05-08T11:27:10.447Z,95518.66
2023-05-08T11:28:18.577Z,95522.96
2023-05-08T11:29:24.960Z,95525.64
2023-05-08T11:30:41.789Z,95534.02
2023-05-08T11:31:54.368Z,95532.27
2023-05-08T11:33:15.534Z,95538.29
2023-05-08T11:34:50.361Z,95544.77
2023-05-08T11:35:59.719Z,95536.97
2023-05-08T11:37:11.169Z,95540.59
2023-05-08T11:38:19.839Z,95545.14
2023-05-08T11:39:25.952Z,95550.62
2023-05-08T11:40:54.416Z,95554.80
2023-05-08T11:42:35.282Z,95548.27
2023-05-08T11:44:20.343Z,95549.16
2023-05-08T11:45:27.357Z,95557.92
2023-05-08T11:46:43.835Z,95558.14
2023-05-08T11:47:49.741Z,95558.51
2023-05-08T11:49:01.846Z,95560.15
2023-05-08T11:50:10.459Z,95559.84
2023-05-08T11:51:21.475Z,95558.93
2023-05-08T11:52:28.593Z,95557.98
2023-05-08T11:53:36.540Z,95562.31
2023-05-08T11:54:42.534Z,95562.10
2023-05-08T11:55:52.554Z,95563.38
2023-05-08T11:56:59.642Z,95564.17
2023-05-08T11:58:17.792Z,95563.41
2023-05-08T11:59:23.612Z,95564.27
2023-05-08T12:00:29.702Z,95565.05
2023-05-08T12:01:37.514Z,95564.64
2023-05-08T12:02:47.616Z,95565.40
2023-05-08T12:04:02.583Z,95561.62
2023-05-08T12:05:10.916Z,95556.23
2023-05-08T12:06:19.400Z,95557.09
2023-05-08T12:07:25.903Z,95561.48
2023-05-08T12:08:32.211Z,95555.05
2023-05-08T12:09:38.656Z,95550.10
2023-05-08T12:10:52.018Z,95550.68
2023-05-08T12:12:01.120Z,95549.77
2023-05-08T12:13:23.672Z,95547.09
2023-05-08T12:14:29.705Z,95544.17
2023-05-08T12:15:37.474Z,95544.44
2023-05-08T12:16:43.506Z,95542.74
2023-05-08T12:18:00.641Z,95540.09
2023-05-08T12:19:09.394Z,95537.21
2023-05-08T12:20:18.742Z,95537.13
2023-05-08T12:21:25.453Z,95534.54
2023-05-08T12:22:31.706Z,95534.40
2023-05-08T12:23:38.578Z,95537.86
2023-05-08T12:24:45.562Z,95536.24
2023-05-08T12:25:55.443Z,95531.95
2023-05-08T12:27:02.255Z,95533.13
2023-05-08T12:28:12.227Z,95535.00
2023-05-08T12:29:20.720Z,95530.77
2023-05-08T12:30:27.253Z,95531.05
2023-05-08T12:31:34.072Z,95537.34
2023-05-08T12:32:41.462Z,95531.77
2023-05-08T12:33:47.466Z,95534.22
2023-05-08T12:34:53.453Z,95536.27
2023-05-08T12:36:00.594Z,95536.95
2023-05-08T12:37:06.894Z,95539.24
2023-05-08T12:38:13.196Z,95537.48
2023-05-08T12:39:20.400Z,95536.06
2023-05-08T12:40:29.287Z,95538.63
2023-05-08T12:41:35.132Z,95541.58
2023-05-08T12:42:49.327Z,95533.62
2023-05-08T12:43:57.203Z,95528.36
2023-05-08T12:45:03.345Z,95526.65
2023-05-08T12:46:14.943Z,95531.20
2023-05-08T12:47:22.210Z,95538.02
2023-05-08T12:48:28.934Z,95535.74
2023-05-08T12:49:35.123Z,95535.49
2023-05-08T12:50:43.381Z,95536.36
2023-05-08T12:51:50.839Z,95536.11
2023-05-08T12:53:01.652Z,95534.18
2023-05-08T12:54:07.675Z,95535.81
2023-05-08T12:55:25.721Z,95537.64
2023-05-08T12:56:31.797Z,95533.64
2023-05-08T12:57:40.299Z,95532.45
2023-05-08T12:58:46.249Z,95534.89
2023-05-08T13:00:04.473Z,95532.17
2023-05-08T13:01:13.729Z,95529.09
2023-05-08T13:02:23.742Z,95530.00
2023-05-08T13:03:30.941Z,95530.44
2023-05-08T13:04:40.100Z,95530.73
2023-05-08T13:05:46.887Z,95534.80
2023-05-08T13:06:58.014Z,95536.73
2023-05-08T13:08:05.864Z,95536.04
2023-05-08T13:09:18.034Z,95539.28
2023-05-08T13:10:25.460Z,95540.95
2023-05-08T13:11:34.480Z,95548.98
2023-05-08T13:12:40.681Z,95551.98
2023-05-08T13:13:46.679Z,95557.45
2023-05-08T13:14:52.761Z,95553.92
2023-05-08T13:16:02.337Z,95556.27
2023-05-08T13:17:08.510Z,95555.20
2023-05-08T13:18:15.092Z,95544.62
2023-05-08T13:19:21.019Z,95546.21
2023-05-08T13:20:27.066Z,95543.14
2023-05-08T13:21:33.451Z,95540.23
2023-05-08T13:22:39.168Z,95543.39
2023-05-08T13:23:45.110Z,95549.12
2023-05-08T13:24:51.000Z,95551.30
2023-05-08T13:25:57.609Z,95557.79
2023-05-08T13:27:03.891Z,95564.48
2023-05-08T13:28:11.040Z,95565.85
2023-05-08T13:29:17.353Z,95570.59
2023-05-08T13:30:24.047Z,95568.55
2023-05-08T13:31:30.283Z,95571.97
2023-05-08T13:32:36.382Z,95574.48
2023-05-08T13:33:42.371Z,95569.77